sensor_id;sensor_type;location;lat;lon;timestamp;P1;durP1;ratioP1;P2;durP2;ratioP2
69981;SDS011;57319;56.274;43.980;2022-09-29T00:02:23;47.10;;;4.30;;
69981;SDS011;57319;56.274;43.980;2022-09-29T00:04:48;80.18;;;4.53;;
69981;SDS011;57319;56.274;43.980;2022-09-29T00:07:14;123.43;;;5.55;;
69981;SDS011;57319;56.274;43.980;2022-09-29T00:09:40;47.53;;;4.38;;
69981;SDS011;57319;56.274;43.980;2022-09-29T00:12:05;95.65;;;6.75;;
69981;SDS011;57319;56.274;43.980;2022-09-29T00:14:31;60.43;;;4.37;;
69981;SDS011;57319;56.274;43.980;2022-09-29T00:16:56;66.50;;;4.45;;
69981;SDS011;57319;56.274;43.980;2022-09-29T00:19:22;63.03;;;4.22;;
69981;SDS011;57319;56.274;43.980;2022-09-29T00:21:49;87.90;;;4.45;;
69981;SDS011;57319;56.274;43.980;2022-09-29T00:24:15;77.38;;;4.28;;
69981;SDS011;57319;56.274;43.980;2022-09-29T00:26:40;58.20;;;4.20;;
69981;SDS011;57319;56.274;43.980;2022-09-29T00:29:08;165.13;;;6.60;;
69981;SDS011;57319;56.274;43.980;2022-09-29T00:31:34;63.75;;;3.97;;
69981;SDS011;57319;56.274;43.980;2022-09-29T00:34:00;97.05;;;5.63;;
69981;SDS011;57319;56.274;43.980;2022-09-29T00:36:26;44.45;;;3.42;;
69981;SDS011;57319;56.274;43.980;2022-09-29T00:38:55;196.10;;;8.50;;
69981;SDS011;57319;56.274;43.980;2022-09-29T00:41:23;105.80;;;4.55;;
69981;SDS011;57319;56.274;43.980;2022-09-29T00:44:03;68.03;;;3.95;;
69981;SDS011;57319;56.274;43.980;2022-09-29T00:46:34;151.20;;;8.38;;
69981;SDS011;57319;56.274;43.980;2022-09-29T00:49:02;124.05;;;6.25;;
69981;SDS011;57319;56.274;43.980;2022-09-29T00:51:34;96.25;;;6.88;;
69981;SDS011;57319;56.274;43.980;2022-09-29T00:54:04;196.55;;;8.02;;
69981;SDS011;57319;56.274;43.980;2022-09-29T00:56:32;79.95;;;4.30;;
69981;SDS011;57319;56.274;43.980;2022-09-29T00:59:02;86.60;;;5.18;;
69981;SDS011;57319;56.274;43.980;2022-09-29T01:01:33;71.90;;;4.65;;
69981;SDS011;57319;56.274;43.980;2022-09-29T01:04:03;77.72;;;5.35;;
69981;SDS011;57319;56.274;43.980;2022-09-29T01:06:38;36.63;;;3.78;;
69981;SDS011;57319;56.274;43.980;2022-09-29T01:09:09;103.43;;;4.68;;
69981;SDS011;57319;56.274;43.980;2022-09-29T01:11:38;52.25;;;3.80;;
69981;SDS011;57319;56.274;43.980;2022-09-29T01:14:05;135.10;;;7.80;;
69981;SDS011;57319;56.274;43.980;2022-09-29T01:16:33;38.47;;;3.55;;
69981;SDS011;57319;56.274;43.980;2022-09-29T01:19:00;116.18;;;6.47;;
69981;SDS011;57319;56.274;43.980;2022-09-29T01:21:38;81.80;;;4.25;;
69981;SDS011;57319;56.274;43.980;2022-09-29T01:40:15;72.88;;;3.58;;
69981;SDS011;57319;56.274;43.980;2022-09-29T01:45:33;75.53;;;4.40;;
69981;SDS011;57319;56.274;43.980;2022-09-29T01:48:09;137.02;;;6.03;;
69981;SDS011;57319;56.274;43.980;2022-09-29T01:50:46;106.15;;;4.45;;
69981;SDS011;57319;56.274;43.980;2022-09-29T01:53:19;29.13;;;3.35;;
69981;SDS011;57319;56.274;43.980;2022-09-29T01:55:52;39.63;;;3.40;;
69981;SDS011;57319;56.274;43.980;2022-09-29T02:01:30;14.88;;;2.95;;
69981;SDS011;57319;56.274;43.980;2022-09-29T02:04:03;52.00;;;3.97;;
69981;SDS011;57319;56.274;43.980;2022-09-29T02:06:37;9.93;;;3.38;;
69981;SDS011;57319;56.274;43.980;2022-09-29T02:09:11;12.50;;;3.30;;
69981;SDS011;57319;56.274;43.980;2022-09-29T02:11:41;2.85;;;2.75;;
69981;SDS011;57319;56.274;43.980;2022-09-29T02:16:39;54.53;;;6.85;;
69981;SDS011;57319;56.274;43.980;2022-09-29T02:19:29;44.17;;;4.55;;
69981;SDS011;57319;56.274;43.980;2022-09-29T02:21:55;111.80;;;5.70;;
69981;SDS011;57319;56.274;43.980;2022-09-29T02:24:22;80.28;;;5.95;;
69981;SDS011;57319;56.274;43.980;2022-09-29T02:26:48;25.33;;;3.97;;
69981;SDS011;57319;56.274;43.980;2022-09-29T02:29:14;79.85;;;5.50;;
69981;SDS011;57319;56.274;43.980;2022-09-29T02:31:40;45.22;;;4.30;;
69981;SDS011;57319;56.274;43.980;2022-09-29T02:34:10;33.20;;;3.95;;
69981;SDS011;57319;56.274;43.980;2022-09-29T02:39:25;51.97;;;4.63;;
69981;SDS011;57319;56.274;43.980;2022-09-29T02:42:18;18.67;;;4.18;;
69981;SDS011;57319;56.274;43.980;2022-09-29T02:48:07;100.63;;;6.30;;
69981;SDS011;57319;56.274;43.980;2022-09-29T02:53:44;102.53;;;7.13;;
69981;SDS011;57319;56.274;43.980;2022-09-29T02:56:28;83.95;;;7.47;;
69981;SDS011;57319;56.274;43.980;2022-09-29T02:59:20;56.33;;;7.30;;
69981;SDS011;57319;56.274;43.980;2022-09-29T03:01:55;39.38;;;5.88;;
69981;SDS011;57319;56.274;43.980;2022-09-29T03:04:23;112.40;;;6.93;;
69981;SDS011;57319;56.274;43.980;2022-09-29T03:06:51;60.97;;;5.47;;
69981;SDS011;57319;56.274;43.980;2022-09-29T03:09:17;44.60;;;5.65;;
69981;SDS011;57319;56.274;43.980;2022-09-29T03:11:42;46.22;;;5.95;;
69981;SDS011;57319;56.274;43.980;2022-09-29T03:14:08;62.55;;;5.93;;
69981;SDS011;57319;56.274;43.980;2022-09-29T03:16:34;27.58;;;4.60;;
69981;SDS011;57319;56.274;43.980;2022-09-29T03:19:01;68.25;;;6.10;;
69981;SDS011;57319;56.274;43.980;2022-09-29T03:21:29;39.67;;;4.60;;
69981;SDS011;57319;56.274;43.980;2022-09-29T03:23:55;43.28;;;5.55;;
69981;SDS011;57319;56.274;43.980;2022-09-29T03:26:21;33.42;;;3.92;;
69981;SDS011;57319;56.274;43.980;2022-09-29T03:28:51;23.13;;;4.20;;
69981;SDS011;57319;56.274;43.980;2022-09-29T03:31:17;46.47;;;3.53;;
69981;SDS011;57319;56.274;43.980;2022-09-29T03:33:42;9.32;;;4.47;;
69981;SDS011;57319;56.274;43.980;2022-09-29T03:36:08;63.63;;;4.40;;
69981;SDS011;57319;56.274;43.980;2022-09-29T03:38:36;27.45;;;3.85;;
69981;SDS011;57319;56.274;43.980;2022-09-29T03:41:02;35.53;;;4.40;;
69981;SDS011;57319;56.274;43.980;2022-09-29T03:43:28;38.58;;;4.93;;
69981;SDS011;57319;56.274;43.980;2022-09-29T03:45:56;19.65;;;4.53;;
69981;SDS011;57319;56.274;43.980;2022-09-29T03:48:22;46.67;;;4.28;;
69981;SDS011;57319;56.274;43.980;2022-09-29T03:50:49;40.10;;;4.50;;
69981;SDS011;57319;56.274;43.980;2022-09-29T03:53:16;33.30;;;5.40;;
69981;SDS011;57319;56.274;43.980;2022-09-29T03:55:48;4.57;;;4.07;;
69981;SDS011;57319;56.274;43.980;2022-09-29T03:58:15;12.45;;;3.22;;
69981;SDS011;57319;56.274;43.980;2022-09-29T04:00:41;12.55;;;3.30;;
69981;SDS011;57319;56.274;43.980;2022-09-29T04:03:08;17.30;;;3.05;;
69981;SDS011;57319;56.274;43.980;2022-09-29T04:05:34;38.53;;;3.70;;
69981;SDS011;57319;56.274;43.980;2022-09-29T04:08:06;40.92;;;4.55;;
69981;SDS011;57319;56.274;43.980;2022-09-29T04:10:33;20.25;;;3.25;;
69981;SDS011;57319;56.274;43.980;2022-09-29T04:13:02;13.82;;;2.90;;
69981;SDS011;57319;56.274;43.980;2022-09-29T04:15:28;18.95;;;3.90;;
69981;SDS011;57319;56.274;43.980;2022-09-29T04:17:54;14.80;;;3.15;;
69981;SDS011;57319;56.274;43.980;2022-09-29T04:20:19;37.75;;;4.28;;
69981;SDS011;57319;56.274;43.980;2022-09-29T04:22:45;33.85;;;3.55;;
69981;SDS011;57319;56.274;43.980;2022-09-29T04:25:11;33.45;;;3.35;;
69981;SDS011;57319;56.274;43.980;2022-09-29T04:27:36;23.73;;;3.40;;
69981;SDS011;57319;56.274;43.980;2022-09-29T04:30:02;28.65;;;3.53;;
69981;SDS011;57319;56.274;43.980;2022-09-29T04:32:29;15.70;;;3.47;;
69981;SDS011;57319;56.274;43.980;2022-09-29T04:34:54;6.90;;;2.97;;
69981;SDS011;57319;56.274;43.980;2022-09-29T04:37:20;26.08;;;3.45;;
69981;SDS011;57319;56.274;43.980;2022-09-29T04:39:46;10.82;;;3.58;;
69981;SDS011;57319;56.274;43.980;2022-09-29T04:42:11;22.00;;;3.72;;
69981;SDS011;57319;56.274;43.980;2022-09-29T04:44:37;52.60;;;5.72;;
69981;SDS011;57319;56.274;43.980;2022-09-29T04:47:02;15.52;;;4.20;;
69981;SDS011;57319;56.274;43.980;2022-09-29T04:49:29;36.85;;;5.03;;
69981;SDS011;57319;56.274;43.980;2022-09-29T04:51:55;15.93;;;4.30;;
69981;SDS011;57319;56.274;43.980;2022-09-29T04:54:21;7.57;;;4.10;;
69981;SDS011;57319;56.274;43.980;2022-09-29T04:56:47;17.13;;;3.60;;
69981;SDS011;57319;56.274;43.980;2022-09-29T04:59:13;14.65;;;3.17;;
69981;SDS011;57319;56.274;43.980;2022-09-29T05:01:39;5.28;;;4.30;;
69981;SDS011;57319;56.274;43.980;2022-09-29T05:04:05;21.75;;;3.60;;
69981;SDS011;57319;56.274;43.980;2022-09-29T05:06:31;25.02;;;4.00;;
69981;SDS011;57319;56.274;43.980;2022-09-29T05:08:57;17.10;;;5.95;;
69981;SDS011;57319;56.274;43.980;2022-09-29T05:11:23;23.95;;;6.07;;
69981;SDS011;57319;56.274;43.980;2022-09-29T05:13:49;35.88;;;5.95;;
69981;SDS011;57319;56.274;43.980;2022-09-29T05:16:17;20.65;;;5.70;;
69981;SDS011;57319;56.274;43.980;2022-09-29T05:18:43;35.47;;;5.60;;
69981;SDS011;57319;56.274;43.980;2022-09-29T05:21:08;8.43;;;4.95;;
69981;SDS011;57319;56.274;43.980;2022-09-29T05:23:34;16.80;;;5.57;;
69981;SDS011;57319;56.274;43.980;2022-09-29T05:26:03;12.85;;;5.57;;
69981;SDS011;57319;56.274;43.980;2022-09-29T05:28:34;13.05;;;5.50;;
69981;SDS011;57319;56.274;43.980;2022-09-29T05:31:01;9.52;;;4.47;;
69981;SDS011;57319;56.274;43.980;2022-09-29T05:33:28;30.27;;;6.07;;
69981;SDS011;57319;56.274;43.980;2022-09-29T05:35:54;36.58;;;7.60;;
69981;SDS011;57319;56.274;43.980;2022-09-29T05:38:20;24.38;;;6.35;;
69981;SDS011;57319;56.274;43.980;2022-09-29T05:40:47;26.70;;;6.72;;
69981;SDS011;57319;56.274;43.980;2022-09-29T05:43:13;37.10;;;8.77;;
69981;SDS011;57319;56.274;43.980;2022-09-29T05:45:39;16.13;;;8.57;;
69981;SDS011;57319;56.274;43.980;2022-09-29T05:48:04;31.33;;;7.57;;
69981;SDS011;57319;56.274;43.980;2022-09-29T05:50:30;31.80;;;8.13;;
69981;SDS011;57319;56.274;43.980;2022-09-29T05:53:06;14.80;;;5.70;;
69981;SDS011;57319;56.274;43.980;2022-09-29T05:55:32;22.60;;;7.20;;
69981;SDS011;57319;56.274;43.980;2022-09-29T05:58:00;12.80;;;6.30;;
69981;SDS011;57319;56.274;43.980;2022-09-29T06:00:25;8.32;;;4.90;;
69981;SDS011;57319;56.274;43.980;2022-09-29T06:02:52;8.52;;;4.22;;
69981;SDS011;57319;56.274;43.980;2022-09-29T06:05:18;12.35;;;5.95;;
69981;SDS011;57319;56.274;43.980;2022-09-29T06:07:43;7.65;;;4.85;;
69981;SDS011;57319;56.274;43.980;2022-09-29T06:10:09;7.22;;;4.25;;
69981;SDS011;57319;56.274;43.980;2022-09-29T06:12:36;5.88;;;4.43;;
69981;SDS011;57319;56.274;43.980;2022-09-29T06:15:03;11.63;;;4.13;;
69981;SDS011;57319;56.274;43.980;2022-09-29T06:17:29;5.38;;;4.13;;
69981;SDS011;57319;56.274;43.980;2022-09-29T06:19:55;12.07;;;3.55;;
69981;SDS011;57319;56.274;43.980;2022-09-29T06:22:21;4.22;;;3.60;;
69981;SDS011;57319;56.274;43.980;2022-09-29T06:24:52;3.78;;;3.50;;
69981;SDS011;57319;56.274;43.980;2022-09-29T06:27:18;5.78;;;3.70;;
69981;SDS011;57319;56.274;43.980;2022-09-29T06:29:44;4.28;;;3.78;;
69981;SDS011;57319;56.274;43.980;2022-09-29T06:32:10;4.72;;;3.70;;
69981;SDS011;57319;56.274;43.980;2022-09-29T06:34:36;7.95;;;3.78;;
69981;SDS011;57319;56.274;43.980;2022-09-29T06:37:22;2.97;;;2.72;;
69981;SDS011;57319;56.274;43.980;2022-09-29T06:40:03;7.00;;;3.13;;
69981;SDS011;57319;56.274;43.980;2022-09-29T06:42:29;6.03;;;3.17;;
69981;SDS011;57319;56.274;43.980;2022-09-29T06:44:55;5.25;;;3.35;;
69981;SDS011;57319;56.274;43.980;2022-09-29T06:47:21;4.22;;;3.58;;
69981;SDS011;57319;56.274;43.980;2022-09-29T06:49:48;5.65;;;3.55;;
69981;SDS011;57319;56.274;43.980;2022-09-29T06:52:15;3.90;;;3.60;;
69981;SDS011;57319;56.274;43.980;2022-09-29T06:54:41;8.43;;;4.10;;
69981;SDS011;57319;56.274;43.980;2022-09-29T06:57:07;10.77;;;4.97;;
69981;SDS011;57319;56.274;43.980;2022-09-29T06:59:35;23.27;;;10.52;;
69981;SDS011;57319;56.274;43.980;2022-09-29T07:02:00;13.93;;;7.00;;
69981;SDS011;57319;56.274;43.980;2022-09-29T07:04:26;5.38;;;4.78;;
69981;SDS011;57319;56.274;43.980;2022-09-29T07:06:52;7.45;;;4.72;;
69981;SDS011;57319;56.274;43.980;2022-09-29T07:09:18;6.88;;;3.80;;
69981;SDS011;57319;56.274;43.980;2022-09-29T07:11:46;5.95;;;3.72;;
69981;SDS011;57319;56.274;43.980;2022-09-29T07:14:17;6.43;;;3.28;;
69981;SDS011;57319;56.274;43.980;2022-09-29T07:16:44;6.18;;;3.63;;
69981;SDS011;57319;56.274;43.980;2022-09-29T07:19:13;5.70;;;3.85;;
69981;SDS011;57319;56.274;43.980;2022-09-29T07:21:40;8.50;;;3.55;;
69981;SDS011;57319;56.274;43.980;2022-09-29T07:24:06;6.55;;;4.03;;
69981;SDS011;57319;56.274;43.980;2022-09-29T07:26:32;3.92;;;3.45;;
69981;SDS011;57319;56.274;43.980;2022-09-29T07:28:58;5.05;;;3.95;;
69981;SDS011;57319;56.274;43.980;2022-09-29T07:31:24;5.88;;;4.13;;
69981;SDS011;57319;56.274;43.980;2022-09-29T07:33:50;6.00;;;3.60;;
69981;SDS011;57319;56.274;43.980;2022-09-29T07:36:18;7.43;;;4.57;;
69981;SDS011;57319;56.274;43.980;2022-09-29T07:38:45;7.57;;;4.40;;
69981;SDS011;57319;56.274;43.980;2022-09-29T07:41:16;7.25;;;4.90;;
69981;SDS011;57319;56.274;43.980;2022-09-29T07:43:44;6.63;;;4.75;;
69981;SDS011;57319;56.274;43.980;2022-09-29T07:46:11;12.77;;;5.50;;
69981;SDS011;57319;56.274;43.980;2022-09-29T07:48:37;12.23;;;5.10;;
69981;SDS011;57319;56.274;43.980;2022-09-29T07:51:05;7.95;;;5.07;;
69981;SDS011;57319;56.274;43.980;2022-09-29T07:53:33;10.27;;;5.25;;
69981;SDS011;57319;56.274;43.980;2022-09-29T07:56:07;15.18;;;6.25;;
69981;SDS011;57319;56.274;43.980;2022-09-29T07:58:37;24.85;;;6.40;;
69981;SDS011;57319;56.274;43.980;2022-09-29T08:01:05;17.17;;;7.18;;
69981;SDS011;57319;56.274;43.980;2022-09-29T08:03:35;18.35;;;8.25;;
69981;SDS011;57319;56.274;43.980;2022-09-29T08:06:01;10.70;;;6.35;;
69981;SDS011;57319;56.274;43.980;2022-09-29T08:08:28;11.35;;;6.43;;
69981;SDS011;57319;56.274;43.980;2022-09-29T08:11:01;13.75;;;7.53;;
69981;SDS011;57319;56.274;43.980;2022-09-29T08:13:31;18.90;;;7.85;;
69981;SDS011;57319;56.274;43.980;2022-09-29T08:15:58;12.38;;;7.00;;
69981;SDS011;57319;56.274;43.980;2022-09-29T08:18:28;16.35;;;6.60;;
69981;SDS011;57319;56.274;43.980;2022-09-29T08:20:55;12.55;;;7.00;;
69981;SDS011;57319;56.274;43.980;2022-09-29T08:23:22;9.77;;;6.15;;
69981;SDS011;57319;56.274;43.980;2022-09-29T08:25:48;14.40;;;6.93;;
69981;SDS011;57319;56.274;43.980;2022-09-29T08:28:15;17.73;;;7.15;;
69981;SDS011;57319;56.274;43.980;2022-09-29T08:30:41;12.52;;;6.53;;
69981;SDS011;57319;56.274;43.980;2022-09-29T08:33:07;10.50;;;7.43;;
69981;SDS011;57319;56.274;43.980;2022-09-29T08:35:39;13.25;;;8.05;;
69981;SDS011;57319;56.274;43.980;2022-09-29T08:38:05;14.95;;;8.20;;
69981;SDS011;57319;56.274;43.980;2022-09-29T08:40:31;12.40;;;7.85;;
69981;SDS011;57319;56.274;43.980;2022-09-29T08:43:09;13.93;;;7.65;;
69981;SDS011;57319;56.274;43.980;2022-09-29T08:45:43;14.98;;;8.75;;
69981;SDS011;57319;56.274;43.980;2022-09-29T08:48:20;12.25;;;7.95;;
69981;SDS011;57319;56.274;43.980;2022-09-29T08:50:54;15.48;;;8.18;;
69981;SDS011;57319;56.274;43.980;2022-09-29T08:53:23;12.20;;;8.70;;
69981;SDS011;57319;56.274;43.980;2022-09-29T08:58:31;12.43;;;8.82;;
69981;SDS011;57319;56.274;43.980;2022-09-29T09:01:20;18.00;;;10.63;;
69981;SDS011;57319;56.274;43.980;2022-09-29T09:20:34;16.73;;;10.50;;
69981;SDS011;57319;56.274;43.980;2022-09-29T09:26:05;19.80;;;10.45;;
69981;SDS011;57319;56.274;43.980;2022-09-29T09:31:06;19.20;;;11.25;;
69981;SDS011;57319;56.274;43.980;2022-09-29T09:36:10;17.42;;;12.15;;
69981;SDS011;57319;56.274;43.980;2022-09-29T09:38:53;19.05;;;11.02;;
69981;SDS011;57319;56.274;43.980;2022-09-29T09:41:24;14.23;;;11.02;;
69981;SDS011;57319;56.274;43.980;2022-09-29T09:43:55;23.90;;;12.05;;
69981;SDS011;57319;56.274;43.980;2022-09-29T09:46:28;17.45;;;11.05;;
69981;SDS011;57319;56.274;43.980;2022-09-29T09:49:02;26.17;;;11.45;;
69981;SDS011;57319;56.274;43.980;2022-09-29T09:54:43;17.60;;;11.15;;
69981;SDS011;57319;56.274;43.980;2022-09-29T10:02:24;16.80;;;10.85;;
69981;SDS011;57319;56.274;43.980;2022-09-29T10:04:51;19.15;;;10.80;;
69981;SDS011;57319;56.274;43.980;2022-09-29T10:07:29;20.13;;;11.43;;
69981;SDS011;57319;56.274;43.980;2022-09-29T10:09:55;20.40;;;10.95;;
69981;SDS011;57319;56.274;43.980;2022-09-29T10:12:28;20.35;;;10.40;;
69981;SDS011;57319;56.274;43.980;2022-09-29T10:15:36;20.67;;;12.35;;
69981;SDS011;57319;56.274;43.980;2022-09-29T10:17:49;21.73;;;13.45;;
69981;SDS011;57319;56.274;43.980;2022-09-29T10:20:33;18.20;;;11.63;;
69981;SDS011;57319;56.274;43.980;2022-09-29T10:28:27;24.38;;;15.23;;
69981;SDS011;57319;56.274;43.980;2022-09-29T10:31:14;27.92;;;16.90;;
69981;SDS011;57319;56.274;43.980;2022-09-29T10:36:23;25.00;;;14.75;;
69981;SDS011;57319;56.274;43.980;2022-09-29T10:38:51;34.00;;;17.38;;
69981;SDS011;57319;56.274;43.980;2022-09-29T10:41:17;31.77;;;16.42;;
69981;SDS011;57319;56.274;43.980;2022-09-29T10:43:47;28.73;;;17.08;;
69981;SDS011;57319;56.274;43.980;2022-09-29T10:46:34;27.42;;;16.05;;
69981;SDS011;57319;56.274;43.980;2022-09-29T10:51:53;37.22;;;17.63;;
69981;SDS011;57319;56.274;43.980;2022-09-29T10:54:28;30.10;;;18.55;;
69981;SDS011;57319;56.274;43.980;2022-09-29T10:57:13;29.08;;;18.63;;
69981;SDS011;57319;56.274;43.980;2022-09-29T10:59:47;38.05;;;22.13;;
69981;SDS011;57319;56.274;43.980;2022-09-29T11:04:49;74.45;;;42.17;;
69981;SDS011;57319;56.274;43.980;2022-09-29T11:07:16;83.97;;;46.30;;
69981;SDS011;57319;56.274;43.980;2022-09-29T11:09:42;88.10;;;48.30;;
69981;SDS011;57319;56.274;43.980;2022-09-29T11:14:53;91.38;;;50.42;;
69981;SDS011;57319;56.274;43.980;2022-09-29T11:19:59;81.38;;;42.80;;
69981;SDS011;57319;56.274;43.980;2022-09-29T11:54:44;80.00;;;38.45;;
69981;SDS011;57319;56.274;43.980;2022-09-29T11:57:34;79.70;;;36.95;;
69981;SDS011;57319;56.274;43.980;2022-09-29T12:00:10;75.13;;;38.72;;
69981;SDS011;57319;56.274;43.980;2022-09-29T12:13:55;74.40;;;35.00;;
69981;SDS011;57319;56.274;43.980;2022-09-29T12:16:29;78.95;;;36.30;;
69981;SDS011;57319;56.274;43.980;2022-09-29T12:19:03;64.97;;;32.53;;
69981;SDS011;57319;56.274;43.980;2022-09-29T12:21:41;73.75;;;36.35;;
69981;SDS011;57319;56.274;43.980;2022-09-29T12:27:07;72.47;;;33.40;;
69981;SDS011;57319;56.274;43.980;2022-09-29T12:29:49;68.07;;;32.65;;
69981;SDS011;57319;56.274;43.980;2022-09-29T12:32:25;68.38;;;32.95;;
69981;SDS011;57319;56.274;43.980;2022-09-29T12:34:58;67.70;;;33.90;;
69981;SDS011;57319;56.274;43.980;2022-09-29T12:37:34;67.30;;;30.60;;
69981;SDS011;57319;56.274;43.980;2022-09-29T12:40:09;72.97;;;32.15;;
69981;SDS011;57319;56.274;43.980;2022-09-29T12:50:22;53.08;;;25.27;;
69981;SDS011;57319;56.274;43.980;2022-09-29T12:58:57;59.42;;;25.20;;
69981;SDS011;57319;56.274;43.980;2022-09-29T13:01:18;56.42;;;23.17;;
69981;SDS011;57319;56.274;43.980;2022-09-29T13:22:41;59.22;;;26.60;;
69981;SDS011;57319;56.274;43.980;2022-09-29T13:27:59;51.00;;;26.40;;
69981;SDS011;57319;56.274;43.980;2022-09-29T13:30:32;54.20;;;24.83;;
69981;SDS011;57319;56.274;43.980;2022-09-29T13:33:07;59.40;;;26.40;;
69981;SDS011;57319;56.274;43.980;2022-09-29T13:35:39;58.72;;;27.08;;
69981;SDS011;57319;56.274;43.980;2022-09-29T13:38:10;46.65;;;23.65;;
69981;SDS011;57319;56.274;43.980;2022-09-29T13:41:07;54.42;;;24.95;;
69981;SDS011;57319;56.274;43.980;2022-09-29T13:44:03;54.13;;;25.75;;
69981;SDS011;57319;56.274;43.980;2022-09-29T13:59:25;62.88;;;25.00;;
69981;SDS011;57319;56.274;43.980;2022-09-29T14:01:55;60.83;;;23.55;;
69981;SDS011;57319;56.274;43.980;2022-09-29T14:07:00;53.90;;;25.67;;
69981;SDS011;57319;56.274;43.980;2022-09-29T14:09:38;57.75;;;24.30;;
69981;SDS011;57319;56.274;43.980;2022-09-29T14:12:08;53.00;;;22.88;;
69981;SDS011;57319;56.274;43.980;2022-09-29T14:14:44;57.83;;;24.08;;
69981;SDS011;57319;56.274;43.980;2022-09-29T14:20:07;53.42;;;24.45;;
69981;SDS011;57319;56.274;43.980;2022-09-29T14:27:41;37.30;;;19.63;;
69981;SDS011;57319;56.274;43.980;2022-09-29T14:33:13;40.67;;;20.08;;
69981;SDS011;57319;56.274;43.980;2022-09-29T14:38:32;32.80;;;18.17;;
69981;SDS011;57319;56.274;43.980;2022-09-29T14:41:22;51.72;;;17.92;;
69981;SDS011;57319;56.274;43.980;2022-09-29T14:47:34;35.28;;;19.20;;
69981;SDS011;57319;56.274;43.980;2022-09-29T14:51:04;29.65;;;17.83;;
69981;SDS011;57319;56.274;43.980;2022-09-29T14:56:32;32.40;;;17.83;;
69981;SDS011;57319;56.274;43.980;2022-09-29T14:59:16;40.55;;;19.25;;
69981;SDS011;57319;56.274;43.980;2022-09-29T15:02:06;38.28;;;21.15;;
69981;SDS011;57319;56.274;43.980;2022-09-29T15:04:43;40.95;;;18.92;;
69981;SDS011;57319;56.274;43.980;2022-09-29T15:07:13;36.38;;;19.13;;
69981;SDS011;57319;56.274;43.980;2022-09-29T15:09:52;32.08;;;19.23;;
69981;SDS011;57319;56.274;43.980;2022-09-29T15:12:26;40.92;;;20.65;;
69981;SDS011;57319;56.274;43.980;2022-09-29T15:14:56;41.17;;;21.30;;
69981;SDS011;57319;56.274;43.980;2022-09-29T15:17:56;53.58;;;22.02;;
69981;SDS011;57319;56.274;43.980;2022-09-29T15:20:22;42.55;;;21.25;;
69981;SDS011;57319;56.274;43.980;2022-09-29T15:22:58;43.63;;;21.60;;
69981;SDS011;57319;56.274;43.980;2022-09-29T15:25:48;39.90;;;20.83;;
69981;SDS011;57319;56.274;43.980;2022-09-29T15:31:03;51.03;;;21.85;;
69981;SDS011;57319;56.274;43.980;2022-09-29T15:33:34;55.63;;;22.38;;
69981;SDS011;57319;56.274;43.980;2022-09-29T15:36:03;50.22;;;22.98;;
69981;SDS011;57319;56.274;43.980;2022-09-29T15:38:32;54.08;;;23.23;;
69981;SDS011;57319;56.274;43.980;2022-09-29T15:41:03;57.88;;;24.10;;
69981;SDS011;57319;56.274;43.980;2022-09-29T15:43:51;46.17;;;22.58;;
69981;SDS011;57319;56.274;43.980;2022-09-29T15:46:23;50.55;;;24.15;;
69981;SDS011;57319;56.274;43.980;2022-09-29T15:49:15;53.53;;;23.75;;
69981;SDS011;57319;56.274;43.980;2022-09-29T15:54:21;58.03;;;24.80;;
69981;SDS011;57319;56.274;43.980;2022-09-29T15:56:47;49.90;;;24.08;;
69981;SDS011;57319;56.274;43.980;2022-09-29T15:59:47;56.10;;;24.08;;
69981;SDS011;57319;56.274;43.980;2022-09-29T16:02:18;60.17;;;26.53;;
69981;SDS011;57319;56.274;43.980;2022-09-29T16:05:09;51.55;;;24.83;;
69981;SDS011;57319;56.274;43.980;2022-09-29T16:07:49;57.20;;;26.95;;
69981;SDS011;57319;56.274;43.980;2022-09-29T16:10:26;55.13;;;25.05;;
69981;SDS011;57319;56.274;43.980;2022-09-29T16:12:55;59.70;;;27.20;;
69981;SDS011;57319;56.274;43.980;2022-09-29T16:18:05;60.42;;;26.95;;
69981;SDS011;57319;56.274;43.980;2022-09-29T16:20:34;56.03;;;26.73;;
69981;SDS011;57319;56.274;43.980;2022-09-29T16:23:08;57.97;;;25.40;;
69981;SDS011;57319;56.274;43.980;2022-09-29T16:25:41;60.65;;;25.33;;
69981;SDS011;57319;56.274;43.980;2022-09-29T16:28:22;66.35;;;26.92;;
69981;SDS011;57319;56.274;43.980;2022-09-29T16:31:22;54.30;;;26.48;;
69981;SDS011;57319;56.274;43.980;2022-09-29T16:33:44;56.67;;;26.27;;
69981;SDS011;57319;56.274;43.980;2022-09-29T16:36:16;66.32;;;26.60;;
69981;SDS011;57319;56.274;43.980;2022-09-29T16:38:45;65.07;;;27.05;;
69981;SDS011;57319;56.274;43.980;2022-09-29T16:41:20;53.35;;;25.02;;
69981;SDS011;57319;56.274;43.980;2022-09-29T16:44:10;60.35;;;26.35;;
69981;SDS011;57319;56.274;43.980;2022-09-29T16:51:46;67.03;;;29.40;;
69981;SDS011;57319;56.274;43.980;2022-09-29T16:54:20;79.68;;;42.10;;
69981;SDS011;57319;56.274;43.980;2022-09-29T16:57:08;73.85;;;37.25;;
69981;SDS011;57319;56.274;43.980;2022-09-29T16:59:44;70.82;;;37.08;;
69981;SDS011;57319;56.274;43.980;2022-09-29T17:02:10;69.68;;;35.80;;
69981;SDS011;57319;56.274;43.980;2022-09-29T17:04:37;65.60;;;34.58;;
69981;SDS011;57319;56.274;43.980;2022-09-29T17:07:03;53.97;;;29.52;;
69981;SDS011;57319;56.274;43.980;2022-09-29T17:09:29;67.57;;;33.05;;
69981;SDS011;57319;56.274;43.980;2022-09-29T17:11:54;62.25;;;33.10;;
69981;SDS011;57319;56.274;43.980;2022-09-29T17:14:20;69.50;;;30.30;;
69981;SDS011;57319;56.274;43.980;2022-09-29T17:16:46;56.00;;;28.17;;
69981;SDS011;57319;56.274;43.980;2022-09-29T17:19:15;51.45;;;26.25;;
69981;SDS011;57319;56.274;43.980;2022-09-29T17:21:42;55.63;;;28.20;;
69981;SDS011;57319;56.274;43.980;2022-09-29T17:24:08;56.72;;;28.83;;
69981;SDS011;57319;56.274;43.980;2022-09-29T17:26:35;59.63;;;27.20;;
69981;SDS011;57319;56.274;43.980;2022-09-29T17:29:28;50.47;;;28.45;;
69981;SDS011;57319;56.274;43.980;2022-09-29T17:31:54;52.25;;;27.35;;
69981;SDS011;57319;56.274;43.980;2022-09-29T17:34:20;50.30;;;23.98;;
69981;SDS011;57319;56.274;43.980;2022-09-29T17:36:53;47.47;;;26.42;;
69981;SDS011;57319;56.274;43.980;2022-09-29T17:39:21;34.47;;;20.60;;
69981;SDS011;57319;56.274;43.980;2022-09-29T17:41:47;39.58;;;22.70;;
69981;SDS011;57319;56.274;43.980;2022-09-29T17:44:13;40.35;;;23.13;;
69981;SDS011;57319;56.274;43.980;2022-09-29T17:46:39;39.85;;;22.92;;
69981;SDS011;57319;56.274;43.980;2022-09-29T17:49:09;34.22;;;21.08;;
69981;SDS011;57319;56.274;43.980;2022-09-29T17:51:36;43.72;;;22.25;;
69981;SDS011;57319;56.274;43.980;2022-09-29T17:54:02;56.22;;;24.73;;
69981;SDS011;57319;56.274;43.980;2022-09-29T17:56:28;47.47;;;25.17;;
69981;SDS011;57319;56.274;43.980;2022-09-29T17:59:01;61.10;;;30.50;;
69981;SDS011;57319;56.274;43.980;2022-09-29T18:01:29;58.53;;;28.30;;
69981;SDS011;57319;56.274;43.980;2022-09-29T18:03:58;51.85;;;26.20;;
69981;SDS011;57319;56.274;43.980;2022-09-29T18:06:27;47.92;;;25.08;;
69981;SDS011;57319;56.274;43.980;2022-09-29T18:08:54;46.30;;;24.95;;
69981;SDS011;57319;56.274;43.980;2022-09-29T18:11:22;47.30;;;25.80;;
69981;SDS011;57319;56.274;43.980;2022-09-29T18:13:49;45.60;;;25.42;;
69981;SDS011;57319;56.274;43.980;2022-09-29T18:16:20;47.53;;;26.98;;
69981;SDS011;57319;56.274;43.980;2022-09-29T18:18:47;55.08;;;29.23;;